sensor_id;sensor_type;location;lat;lon;timestamp;P1;durP1;ratioP1;P2;durP2;ratioP2
44137;SDS011;29800;55.942;37.314;2022-12-18T00:00:58;7.97;;;5.05;;
44137;SDS011;29800;55.942;37.314;2022-12-18T00:03:25;10.52;;;5.40;;
44137;SDS011;29800;55.942;37.314;2022-12-18T00:05:51;8.30;;;4.63;;
44137;SDS011;29800;55.942;37.314;2022-12-18T00:08:18;8.02;;;4.88;;
44137;SDS011;29800;55.942;37.314;2022-12-18T00:10:44;8.00;;;4.57;;
44137;SDS011;29800;55.942;37.314;2022-12-18T00:13:11;8.05;;;4.95;;
44137;SDS011;29800;55.942;37.314;2022-12-18T00:15:38;8.68;;;4.70;;
44137;SDS011;29800;55.942;37.314;2022-12-18T00:18:05;10.25;;;4.60;;
44137;SDS011;29800;55.942;37.314;2022-12-18T00:20:35;8.73;;;5.32;;
44137;SDS011;29800;55.942;37.314;2022-12-18T00:23:05;6.75;;;4.13;;
44137;SDS011;29800;55.942;37.314;2022-12-18T00:25:33;6.90;;;4.50;;
44137;SDS011;29800;55.942;37.314;2022-12-18T00:28:00;7.18;;;4.53;;
44137;SDS011;29800;55.942;37.314;2022-12-18T00:30:27;8.00;;;4.63;;
44137;SDS011;29800;55.942;37.314;2022-12-18T00:32:54;9.23;;;4.57;;
44137;SDS011;29800;55.942;37.314;2022-12-18T00:35:20;8.98;;;5.30;;
44137;SDS011;29800;55.942;37.314;2022-12-18T00:37:46;7.13;;;4.63;;
44137;SDS011;29800;55.942;37.314;2022-12-18T00:40:12;8.30;;;4.85;;
44137;SDS011;29800;55.942;37.314;2022-12-18T00:42:38;6.75;;;4.18;;
44137;SDS011;29800;55.942;37.314;2022-12-18T00:45:27;8.25;;;4.85;;
44137;SDS011;29800;55.942;37.314;2022-12-18T00:47:56;7.97;;;4.47;;
44137;SDS011;29800;55.942;37.314;2022-12-18T00:50:23;8.77;;;4.88;;
44137;SDS011;29800;55.942;37.314;2022-12-18T00:52:50;7.18;;;4.55;;
44137;SDS011;29800;55.942;37.314;2022-12-18T00:55:16;8.18;;;4.90;;
44137;SDS011;29800;55.942;37.314;2022-12-18T00:57:43;8.07;;;4.75;;
44137;SDS011;29800;55.942;37.314;2022-12-18T01:00:12;8.30;;;4.82;;
44137;SDS011;29800;55.942;37.314;2022-12-18T01:02:41;7.60;;;4.90;;
44137;SDS011;29800;55.942;37.314;2022-12-18T01:05:08;8.52;;;4.72;;
44137;SDS011;29800;55.942;37.314;2022-12-18T01:07:36;8.63;;;5.05;;
44137;SDS011;29800;55.942;37.314;2022-12-18T01:10:03;8.48;;;4.75;;
44137;SDS011;29800;55.942;37.314;2022-12-18T01:12:30;8.02;;;4.50;;
44137;SDS011;29800;55.942;37.314;2022-12-18T01:14:56;8.25;;;4.55;;
44137;SDS011;29800;55.942;37.314;2022-12-18T01:17:23;8.73;;;4.85;;
44137;SDS011;29800;55.942;37.314;2022-12-18T01:19:49;6.85;;;4.30;;
44137;SDS011;29800;55.942;37.314;2022-12-18T01:22:15;9.82;;;5.57;;
44137;SDS011;29800;55.942;37.314;2022-12-18T01:24:41;8.50;;;5.03;;
44137;SDS011;29800;55.942;37.314;2022-12-18T01:27:07;7.57;;;4.75;;
44137;SDS011;29800;55.942;37.314;2022-12-18T01:29:33;8.88;;;4.80;;
44137;SDS011;29800;55.942;37.314;2022-12-18T01:31:59;9.65;;;4.78;;
44137;SDS011;29800;55.942;37.314;2022-12-18T01:34:25;7.82;;;4.30;;
44137;SDS011;29800;55.942;37.314;2022-12-18T01:36:51;7.95;;;4.93;;
44137;SDS011;29800;55.942;37.314;2022-12-18T01:39:18;8.10;;;4.65;;
44137;SDS011;29800;55.942;37.314;2022-12-18T01:41:44;7.05;;;4.53;;
44137;SDS011;29800;55.942;37.314;2022-12-18T01:49:54;8.25;;;4.60;;
44137;SDS011;29800;55.942;37.314;2022-12-18T01:52:21;7.25;;;4.43;;
44137;SDS011;29800;55.942;37.314;2022-12-18T01:54:48;8.85;;;4.97;;
44137;SDS011;29800;55.942;37.314;2022-12-18T01:57:18;9.10;;;4.60;;
44137;SDS011;29800;55.942;37.314;2022-12-18T01:59:45;13.82;;;4.57;;
44137;SDS011;29800;55.942;37.314;2022-12-18T02:02:16;6.72;;;4.13;;
44137;SDS011;29800;55.942;37.314;2022-12-18T02:04:43;7.50;;;4.35;;
44137;SDS011;29800;55.942;37.314;2022-12-18T02:09:44;8.02;;;4.75;;
44137;SDS011;29800;55.942;37.314;2022-12-18T02:12:21;7.57;;;4.40;;
44137;SDS011;29800;55.942;37.314;2022-12-18T02:22:57;7.13;;;3.97;;
44137;SDS011;29800;55.942;37.314;2022-12-18T02:28:25;7.25;;;3.90;;
44137;SDS011;29800;55.942;37.314;2022-12-18T02:30:59;5.78;;;3.85;;
44137;SDS011;29800;55.942;37.314;2022-12-18T02:33:28;7.18;;;4.28;;
44137;SDS011;29800;55.942;37.314;2022-12-18T02:35:56;6.93;;;4.15;;
44137;SDS011;29800;55.942;37.314;2022-12-18T02:38:25;6.38;;;3.78;;
44137;SDS011;29800;55.942;37.314;2022-12-18T02:40:56;7.07;;;3.67;;
44137;SDS011;29800;55.942;37.314;2022-12-18T02:43:23;6.78;;;3.90;;
44137;SDS011;29800;55.942;37.314;2022-12-18T02:45:57;5.55;;;3.80;;
44137;SDS011;29800;55.942;37.314;2022-12-18T02:48:30;6.80;;;3.65;;
44137;SDS011;29800;55.942;37.314;2022-12-18T02:53:38;8.07;;;3.93;;
44137;SDS011;29800;55.942;37.314;2022-12-18T02:56:17;7.18;;;3.72;;
44137;SDS011;29800;55.942;37.314;2022-12-18T03:01:35;6.45;;;3.78;;
44137;SDS011;29800;55.942;37.314;2022-12-18T03:04:13;6.07;;;3.67;;
44137;SDS011;29800;55.942;37.314;2022-12-18T03:06:53;5.63;;;3.50;;
44137;SDS011;29800;55.942;37.314;2022-12-18T03:09:28;6.85;;;3.80;;
44137;SDS011;29800;55.942;37.314;2022-12-18T03:12:02;7.80;;;4.20;;
44137;SDS011;29800;55.942;37.314;2022-12-18T03:17:43;7.25;;;3.92;;
44137;SDS011;29800;55.942;37.314;2022-12-18T03:20:17;7.60;;;3.70;;
44137;SDS011;29800;55.942;37.314;2022-12-18T03:22:46;6.18;;;3.75;;
44137;SDS011;29800;55.942;37.314;2022-12-18T03:25:18;8.38;;;3.78;;
44137;SDS011;29800;55.942;37.314;2022-12-18T03:27:47;6.05;;;3.17;;
44137;SDS011;29800;55.942;37.314;2022-12-18T03:30:19;5.50;;;3.60;;
44137;SDS011;29800;55.942;37.314;2022-12-18T03:32:51;5.80;;;3.30;;
44137;SDS011;29800;55.942;37.314;2022-12-18T03:35:43;6.22;;;3.80;;
44137;SDS011;29800;55.942;37.314;2022-12-18T03:38:11;5.25;;;3.38;;
44137;SDS011;29800;55.942;37.314;2022-12-18T03:40:49;6.32;;;3.13;;
44137;SDS011;29800;55.942;37.314;2022-12-18T03:44:07;8.95;;;3.75;;
44137;SDS011;29800;55.942;37.314;2022-12-18T03:46:47;7.05;;;3.72;;
44137;SDS011;29800;55.942;37.314;2022-12-18T03:52:57;5.63;;;3.28;;
44137;SDS011;29800;55.942;37.314;2022-12-18T03:55:09;6.10;;;3.53;;
44137;SDS011;29800;55.942;37.314;2022-12-18T03:57:38;7.57;;;3.70;;
44137;SDS011;29800;55.942;37.314;2022-12-18T04:00:08;6.72;;;3.58;;
44137;SDS011;29800;55.942;37.314;2022-12-18T04:02:51;6.55;;;3.58;;
44137;SDS011;29800;55.942;37.314;2022-12-18T04:05:26;7.55;;;4.22;;
44137;SDS011;29800;55.942;37.314;2022-12-18T04:07:54;6.95;;;4.10;;
44137;SDS011;29800;55.942;37.314;2022-12-18T04:10:21;7.32;;;4.05;;
44137;SDS011;29800;55.942;37.314;2022-12-18T04:12:48;7.30;;;4.38;;
44137;SDS011;29800;55.942;37.314;2022-12-18T04:15:15;8.07;;;3.60;;
44137;SDS011;29800;55.942;37.314;2022-12-18T04:17:48;6.82;;;4.07;;
44137;SDS011;29800;55.942;37.314;2022-12-18T04:20:18;7.60;;;3.55;;
44137;SDS011;29800;55.942;37.314;2022-12-18T04:22:45;6.57;;;3.90;;
44137;SDS011;29800;55.942;37.314;2022-12-18T04:25:11;7.63;;;3.70;;
44137;SDS011;29800;55.942;37.314;2022-12-18T04:27:46;8.30;;;4.30;;
44137;SDS011;29800;55.942;37.314;2022-12-18T04:30:12;9.50;;;5.32;;
44137;SDS011;29800;55.942;37.314;2022-12-18T04:32:38;7.22;;;4.07;;
44137;SDS011;29800;55.942;37.314;2022-12-18T04:35:04;6.88;;;3.95;;
44137;SDS011;29800;55.942;37.314;2022-12-18T04:37:37;6.88;;;4.20;;
44137;SDS011;29800;55.942;37.314;2022-12-18T04:40:04;7.00;;;3.83;;
44137;SDS011;29800;55.942;37.314;2022-12-18T04:42:39;7.35;;;3.97;;
44137;SDS011;29800;55.942;37.314;2022-12-18T04:45:06;8.18;;;4.30;;
44137;SDS011;29800;55.942;37.314;2022-12-18T04:47:33;6.93;;;4.35;;
44137;SDS011;29800;55.942;37.314;2022-12-18T04:49:59;7.18;;;4.20;;
44137;SDS011;29800;55.942;37.314;2022-12-18T04:52:26;7.15;;;4.03;;
44137;SDS011;29800;55.942;37.314;2022-12-18T04:54:52;8.20;;;3.80;;
44137;SDS011;29800;55.942;37.314;2022-12-18T04:57:18;9.15;;;4.28;;
44137;SDS011;29800;55.942;37.314;2022-12-18T04:59:44;7.72;;;4.32;;
44137;SDS011;29800;55.942;37.314;2022-12-18T05:02:10;6.38;;;3.70;;
44137;SDS011;29800;55.942;37.314;2022-12-18T05:04:36;7.97;;;3.97;;
44137;SDS011;29800;55.942;37.314;2022-12-18T05:07:03;7.05;;;4.03;;
44137;SDS011;29800;55.942;37.314;2022-12-18T05:09:28;8.40;;;4.18;;
44137;SDS011;29800;55.942;37.314;2022-12-18T05:11:54;7.88;;;3.58;;
44137;SDS011;29800;55.942;37.314;2022-12-18T05:14:20;9.48;;;4.38;;
44137;SDS011;29800;55.942;37.314;2022-12-18T05:16:46;6.70;;;4.10;;
44137;SDS011;29800;55.942;37.314;2022-12-18T05:19:12;6.82;;;4.20;;
44137;SDS011;29800;55.942;37.314;2022-12-18T05:21:38;6.50;;;3.80;;
44137;SDS011;29800;55.942;37.314;2022-12-18T05:24:04;5.82;;;3.47;;
44137;SDS011;29800;55.942;37.314;2022-12-18T05:26:30;6.05;;;3.20;;
44137;SDS011;29800;55.942;37.314;2022-12-18T05:28:57;8.75;;;3.95;;
44137;SDS011;29800;55.942;37.314;2022-12-18T05:31:23;5.97;;;3.80;;
44137;SDS011;29800;55.942;37.314;2022-12-18T05:33:49;6.72;;;3.47;;
44137;SDS011;29800;55.942;37.314;2022-12-18T05:36:15;6.45;;;3.70;;
44137;SDS011;29800;55.942;37.314;2022-12-18T05:38:41;6.15;;;3.95;;
44137;SDS011;29800;55.942;37.314;2022-12-18T05:41:08;5.45;;;3.28;;
44137;SDS011;29800;55.942;37.314;2022-12-18T05:43:35;7.55;;;3.60;;
44137;SDS011;29800;55.942;37.314;2022-12-18T05:46:03;6.35;;;3.50;;
44137;SDS011;29800;55.942;37.314;2022-12-18T05:48:34;6.07;;;3.47;;
44137;SDS011;29800;55.942;37.314;2022-12-18T05:51:07;7.20;;;3.60;;
44137;SDS011;29800;55.942;37.314;2022-12-18T05:53:35;6.68;;;3.40;;
44137;SDS011;29800;55.942;37.314;2022-12-18T05:56:02;7.03;;;3.80;;
44137;SDS011;29800;55.942;37.314;2022-12-18T05:58:30;5.65;;;3.28;;
44137;SDS011;29800;55.942;37.314;2022-12-18T06:00:57;6.97;;;3.88;;
44137;SDS011;29800;55.942;37.314;2022-12-18T06:03:31;6.53;;;3.72;;
44137;SDS011;29800;55.942;37.314;2022-12-18T06:05:57;4.95;;;3.28;;
44137;SDS011;29800;55.942;37.314;2022-12-18T06:08:23;7.78;;;3.08;;
44137;SDS011;29800;55.942;37.314;2022-12-18T06:10:49;11.38;;;3.78;;
44137;SDS011;29800;55.942;37.314;2022-12-18T06:13:19;6.47;;;3.70;;
44137;SDS011;29800;55.942;37.314;2022-12-18T06:15:45;7.90;;;3.63;;
44137;SDS011;29800;55.942;37.314;2022-12-18T06:18:11;6.97;;;3.60;;
44137;SDS011;29800;55.942;37.314;2022-12-18T06:20:37;5.63;;;3.30;;
44137;SDS011;29800;55.942;37.314;2022-12-18T06:23:05;7.30;;;3.80;;
44137;SDS011;29800;55.942;37.314;2022-12-18T06:25:31;6.53;;;4.03;;
44137;SDS011;29800;55.942;37.314;2022-12-18T06:27:58;7.78;;;3.65;;
44137;SDS011;29800;55.942;37.314;2022-12-18T06:30:24;7.45;;;3.95;;
44137;SDS011;29800;55.942;37.314;2022-12-18T06:32:51;7.30;;;3.85;;
44137;SDS011;29800;55.942;37.314;2022-12-18T06:35:17;6.13;;;3.90;;
44137;SDS011;29800;55.942;37.314;2022-12-18T06:37:43;8.70;;;3.85;;
44137;SDS011;29800;55.942;37.314;2022-12-18T06:40:09;6.22;;;3.65;;
44137;SDS011;29800;55.942;37.314;2022-12-18T06:42:35;5.95;;;3.83;;
44137;SDS011;29800;55.942;37.314;2022-12-18T06:45:01;6.93;;;3.80;;
44137;SDS011;29800;55.942;37.314;2022-12-18T06:47:30;7.53;;;3.97;;
44137;SDS011;29800;55.942;37.314;2022-12-18T06:49:56;8.20;;;3.88;;
44137;SDS011;29800;55.942;37.314;2022-12-18T06:52:22;7.60;;;3.83;;
44137;SDS011;29800;55.942;37.314;2022-12-18T06:54:48;7.43;;;3.72;;
44137;SDS011;29800;55.942;37.314;2022-12-18T06:57:14;7.93;;;3.88;;
44137;SDS011;29800;55.942;37.314;2022-12-18T06:59:40;7.20;;;3.75;;
44137;SDS011;29800;55.942;37.314;2022-12-18T07:02:06;6.47;;;3.90;;
44137;SDS011;29800;55.942;37.314;2022-12-18T07:04:32;6.57;;;3.60;;
44137;SDS011;29800;55.942;37.314;2022-12-18T07:06:58;6.20;;;3.92;;
44137;SDS011;29800;55.942;37.314;2022-12-18T07:09:24;7.65;;;3.83;;
44137;SDS011;29800;55.942;37.314;2022-12-18T07:11:50;8.40;;;3.65;;
44137;SDS011;29800;55.942;37.314;2022-12-18T07:14:16;7.22;;;4.18;;
44137;SDS011;29800;55.942;37.314;2022-12-18T07:16:42;7.32;;;3.78;;
44137;SDS011;29800;55.942;37.314;2022-12-18T07:19:08;5.18;;;3.28;;
44137;SDS011;29800;55.942;37.314;2022-12-18T07:21:34;7.68;;;3.50;;
44137;SDS011;29800;55.942;37.314;2022-12-18T07:24:00;6.22;;;3.80;;
44137;SDS011;29800;55.942;37.314;2022-12-18T07:26:27;6.72;;;3.92;;
44137;SDS011;29800;55.942;37.314;2022-12-18T07:28:56;5.70;;;3.47;;
44137;SDS011;29800;55.942;37.314;2022-12-18T07:31:23;6.15;;;3.58;;
44137;SDS011;29800;55.942;37.314;2022-12-18T07:33:50;7.85;;;3.40;;
44137;SDS011;29800;55.942;37.314;2022-12-18T07:36:16;6.47;;;3.85;;
44137;SDS011;29800;55.942;37.314;2022-12-18T07:38:46;6.07;;;3.67;;
44137;SDS011;29800;55.942;37.314;2022-12-18T07:41:12;6.40;;;3.80;;
44137;SDS011;29800;55.942;37.314;2022-12-18T07:43:39;5.95;;;3.97;;
44137;SDS011;29800;55.942;37.314;2022-12-18T07:46:07;5.63;;;3.30;;
44137;SDS011;29800;55.942;37.314;2022-12-18T07:48:33;7.40;;;3.65;;
44137;SDS011;29800;55.942;37.314;2022-12-18T07:51:00;7.90;;;4.07;;
44137;SDS011;29800;55.942;37.314;2022-12-18T07:53:28;9.05;;;4.38;;
44137;SDS011;29800;55.942;37.314;2022-12-18T07:55:55;7.13;;;3.22;;
44137;SDS011;29800;55.942;37.314;2022-12-18T07:58:28;8.27;;;3.78;;
44137;SDS011;29800;55.942;37.314;2022-12-18T08:01:01;6.47;;;3.72;;
44137;SDS011;29800;55.942;37.314;2022-12-18T08:03:34;7.43;;;3.55;;
44137;SDS011;29800;55.942;37.314;2022-12-18T08:06:01;7.20;;;3.95;;
44137;SDS011;29800;55.942;37.314;2022-12-18T08:08:29;8.55;;;3.58;;
44137;SDS011;29800;55.942;37.314;2022-12-18T08:10:56;5.40;;;3.25;;
44137;SDS011;29800;55.942;37.314;2022-12-18T08:13:23;5.57;;;3.13;;
44137;SDS011;29800;55.942;37.314;2022-12-18T08:15:59;6.97;;;3.60;;
44137;SDS011;29800;55.942;37.314;2022-12-18T08:18:28;5.25;;;3.38;;
44137;SDS011;29800;55.942;37.314;2022-12-18T08:20:54;5.40;;;3.20;;
44137;SDS011;29800;55.942;37.314;2022-12-18T08:23:21;6.25;;;2.72;;
44137;SDS011;29800;55.942;37.314;2022-12-18T08:25:47;5.13;;;3.10;;
44137;SDS011;29800;55.942;37.314;2022-12-18T08:28:13;5.43;;;3.30;;
44137;SDS011;29800;55.942;37.314;2022-12-18T08:30:42;6.28;;;3.38;;
44137;SDS011;29800;55.942;37.314;2022-12-18T08:33:08;5.78;;;3.03;;
44137;SDS011;29800;55.942;37.314;2022-12-18T08:35:35;5.72;;;3.40;;
44137;SDS011;29800;55.942;37.314;2022-12-18T08:38:02;5.93;;;3.38;;
44137;SDS011;29800;55.942;37.314;2022-12-18T08:40:29;5.72;;;3.28;;
44137;SDS011;29800;55.942;37.314;2022-12-18T08:42:55;4.68;;;2.80;;
44137;SDS011;29800;55.942;37.314;2022-12-18T08:45:39;5.60;;;2.90;;
44137;SDS011;29800;55.942;37.314;2022-12-18T08:48:05;5.90;;;3.53;;
44137;SDS011;29800;55.942;37.314;2022-12-18T08:50:32;4.70;;;2.83;;
44137;SDS011;29800;55.942;37.314;2022-12-18T08:52:58;4.85;;;2.85;;
44137;SDS011;29800;55.942;37.314;2022-12-18T08:55:24;6.85;;;3.35;;
44137;SDS011;29800;55.942;37.314;2022-12-18T08:57:50;6.55;;;3.20;;
44137;SDS011;29800;55.942;37.314;2022-12-18T09:00:16;5.63;;;3.08;;
44137;SDS011;29800;55.942;37.314;2022-12-18T09:02:42;7.60;;;3.53;;
44137;SDS011;29800;55.942;37.314;2022-12-18T09:05:08;6.47;;;3.45;;
44137;SDS011;29800;55.942;37.314;2022-12-18T09:07:35;5.38;;;2.92;;
44137;SDS011;29800;55.942;37.314;2022-12-18T09:10:01;4.88;;;2.60;;
44137;SDS011;29800;55.942;37.314;2022-12-18T09:12:28;4.18;;;2.58;;
44137;SDS011;29800;55.942;37.314;2022-12-18T09:14:54;5.65;;;2.70;;
44137;SDS011;29800;55.942;37.314;2022-12-18T09:17:21;4.50;;;2.45;;
44137;SDS011;29800;55.942;37.314;2022-12-18T09:19:47;5.03;;;2.50;;
44137;SDS011;29800;55.942;37.314;2022-12-18T09:22:14;5.28;;;2.80;;
44137;SDS011;29800;55.942;37.314;2022-12-18T09:24:40;4.63;;;2.72;;
44137;SDS011;29800;55.942;37.314;2022-12-18T09:27:06;4.90;;;2.50;;
44137;SDS011;29800;55.942;37.314;2022-12-18T09:29:32;5.82;;;2.92;;
44137;SDS011;29800;55.942;37.314;2022-12-18T09:31:58;5.35;;;3.03;;
44137;SDS011;29800;55.942;37.314;2022-12-18T09:34:25;4.60;;;2.53;;
44137;SDS011;29800;55.942;37.314;2022-12-18T09:36:51;7.07;;;2.97;;
44137;SDS011;29800;55.942;37.314;2022-12-18T09:39:17;3.97;;;2.65;;
44137;SDS011;29800;55.942;37.314;2022-12-18T09:49:24;4.63;;;2.58;;
44137;SDS011;29800;55.942;37.314;2022-12-18T09:51:55;4.47;;;2.60;;
44137;SDS011;29800;55.942;37.314;2022-12-18T09:54:43;5.57;;;2.83;;
44137;SDS011;29800;55.942;37.314;2022-12-18T09:57:17;5.65;;;3.00;;
44137;SDS011;29800;55.942;37.314;2022-12-18T09:59:47;4.28;;;2.75;;
44137;SDS011;29800;55.942;37.314;2022-12-18T10:02:19;4.93;;;2.75;;
44137;SDS011;29800;55.942;37.314;2022-12-18T10:04:52;5.10;;;2.92;;
44137;SDS011;29800;55.942;37.314;2022-12-18T10:07:35;5.40;;;2.55;;
44137;SDS011;29800;55.942;37.314;2022-12-18T10:12:55;5.75;;;2.85;;
44137;SDS011;29800;55.942;37.314;2022-12-18T10:15:52;7.93;;;3.33;;
44137;SDS011;29800;55.942;37.314;2022-12-18T10:21:30;5.28;;;2.95;;
44137;SDS011;29800;55.942;37.314;2022-12-18T10:26:49;4.60;;;2.53;;
44137;SDS011;29800;55.942;37.314;2022-12-18T10:29:16;4.82;;;2.60;;
44137;SDS011;29800;55.942;37.314;2022-12-18T10:31:42;5.40;;;2.90;;
44137;SDS011;29800;55.942;37.314;2022-12-18T10:34:11;5.95;;;2.78;;
44137;SDS011;29800;55.942;37.314;2022-12-18T10:36:41;4.50;;;2.58;;
44137;SDS011;29800;55.942;37.314;2022-12-18T10:39:18;5.30;;;2.75;;
44137;SDS011;29800;55.942;37.314;2022-12-18T10:41:50;6.05;;;2.65;;
44137;SDS011;29800;55.942;37.314;2022-12-18T10:44:18;4.50;;;2.63;;
44137;SDS011;29800;55.942;37.314;2022-12-18T10:46:46;3.75;;;2.35;;
44137;SDS011;29800;55.942;37.314;2022-12-18T10:49:23;3.67;;;2.60;;
44137;SDS011;29800;55.942;37.314;2022-12-18T10:54:37;4.55;;;2.63;;
44137;SDS011;29800;55.942;37.314;2022-12-18T10:57:14;4.22;;;2.50;;
44137;SDS011;29800;55.942;37.314;2022-12-18T10:59:51;4.88;;;2.50;;
44137;SDS011;29800;55.942;37.314;2022-12-18T11:02:27;5.07;;;2.47;;
44137;SDS011;29800;55.942;37.314;2022-12-18T11:04:59;4.40;;;2.22;;
44137;SDS011;29800;55.942;37.314;2022-12-18T11:07:38;4.57;;;2.50;;
44137;SDS011;29800;55.942;37.314;2022-12-18T11:10:19;4.22;;;2.38;;
44137;SDS011;29800;55.942;37.314;2022-12-18T11:12:46;4.75;;;2.53;;
44137;SDS011;29800;55.942;37.314;2022-12-18T11:15:17;4.22;;;2.33;;
44137;SDS011;29800;55.942;37.314;2022-12-18T11:17:51;4.78;;;2.33;;
44137;SDS011;29800;55.942;37.314;2022-12-18T11:22:54;4.60;;;2.40;;
44137;SDS011;29800;55.942;37.314;2022-12-18T11:25:23;5.13;;;2.13;;
44137;SDS011;29800;55.942;37.314;2022-12-18T11:27:54;4.40;;;2.33;;
44137;SDS011;29800;55.942;37.314;2022-12-18T11:30:26;4.03;;;2.22;;
44137;SDS011;29800;55.942;37.314;2022-12-18T11:38:18;3.88;;;2.00;;
44137;SDS011;29800;55.942;37.314;2022-12-18T11:43:40;5.03;;;2.33;;
44137;SDS011;29800;55.942;37.314;2022-12-18T11:46:14;3.53;;;1.90;;
44137;SDS011;29800;55.942;37.314;2022-12-18T11:48:56;4.10;;;2.17;;
44137;SDS011;29800;55.942;37.314;2022-12-18T11:51:34;4.63;;;2.33;;
44137;SDS011;29800;55.942;37.314;2022-12-18T11:54:24;3.83;;;2.08;;
44137;SDS011;29800;55.942;37.314;2022-12-18T11:56:55;3.13;;;2.00;;
44137;SDS011;29800;55.942;37.314;2022-12-18T12:10:07;6.18;;;2.90;;
44137;SDS011;29800;55.942;37.314;2022-12-18T12:15:32;6.40;;;2.88;;
44137;SDS011;29800;55.942;37.314;2022-12-18T12:18:32;5.75;;;3.30;;
44137;SDS011;29800;55.942;37.314;2022-12-18T12:40:26;14.50;;;5.95;;
44137;SDS011;29800;55.942;37.314;2022-12-18T12:42:56;10.65;;;5.28;;
44137;SDS011;29800;55.942;37.314;2022-12-18T12:48:16;14.35;;;5.75;;
44137;SDS011;29800;55.942;37.314;2022-12-18T12:50:50;10.95;;;5.40;;
44137;SDS011;29800;55.942;37.314;2022-12-18T12:53:25;12.88;;;5.50;;
44137;SDS011;29800;55.942;37.314;2022-12-18T12:55:54;14.00;;;5.55;;
44137;SDS011;29800;55.942;37.314;2022-12-18T13:01:41;12.95;;;6.00;;
44137;SDS011;29800;55.942;37.314;2022-12-18T13:04:42;12.18;;;4.93;;
44137;SDS011;29800;55.942;37.314;2022-12-18T13:07:37;14.75;;;5.82;;
44137;SDS011;29800;55.942;37.314;2022-12-18T13:12:56;10.15;;;5.10;;
44137;SDS011;29800;55.942;37.314;2022-12-18T13:15:34;10.07;;;4.63;;
44137;SDS011;29800;55.942;37.314;2022-12-18T13:18:17;10.18;;;4.60;;
44137;SDS011;29800;55.942;37.314;2022-12-18T13:25:50;9.70;;;4.00;;
44137;SDS011;29800;55.942;37.314;2022-12-18T13:28:20;11.05;;;4.70;;
44137;SDS011;29800;55.942;37.314;2022-12-18T13:31:10;10.23;;;4.75;;
44137;SDS011;29800;55.942;37.314;2022-12-18T13:38:42;9.20;;;4.75;;
44137;SDS011;29800;55.942;37.314;2022-12-18T13:43:54;9.13;;;4.32;;
44137;SDS011;29800;55.942;37.314;2022-12-18T13:46:28;8.48;;;3.95;;
44137;SDS011;29800;55.942;37.314;2022-12-18T13:49:22;6.60;;;3.72;;
44137;SDS011;29800;55.942;37.314;2022-12-18T13:51:52;6.10;;;3.50;;
44137;SDS011;29800;55.942;37.314;2022-12-18T13:57:22;6.63;;;3.40;;
44137;SDS011;29800;55.942;37.314;2022-12-18T13:59:50;7.22;;;3.78;;
44137;SDS011;29800;55.942;37.314;2022-12-18T14:02:17;6.57;;;3.17;;
44137;SDS011;29800;55.942;37.314;2022-12-18T14:04:48;7.45;;;3.58;;
44137;SDS011;29800;55.942;37.314;2022-12-18T14:07:15;6.45;;;3.00;;
44137;SDS011;29800;55.942;37.314;2022-12-18T14:10:02;7.28;;;3.67;;
44137;SDS011;29800;55.942;37.314;2022-12-18T14:12:30;5.63;;;3.13;;
44137;SDS011;29800;55.942;37.314;2022-12-18T14:17:52;5.32;;;3.25;;
44137;SDS011;29800;55.942;37.314;2022-12-18T14:20:19;10.48;;;4.22;;
44137;SDS011;29800;55.942;37.314;2022-12-18T14:22:46;5.32;;;2.95;;
44137;SDS011;29800;55.942;37.314;2022-12-18T14:27:51;5.80;;;3.03;;
44137;SDS011;29800;55.942;37.314;2022-12-18T14:30:37;7.47;;;3.22;;
44137;SDS011;29800;55.942;37.314;2022-12-18T14:35:34;5.85;;;3.08;;
44137;SDS011;29800;55.942;37.314;2022-12-18T14:38:26;5.43;;;3.25;;
44137;SDS011;29800;55.942;37.314;2022-12-18T14:40:59;5.38;;;3.00;;
44137;SDS011;29800;55.942;37.314;2022-12-18T14:43:27;5.60;;;3.22;;
44137;SDS011;29800;55.942;37.314;2022-12-18T14:45:55;4.35;;;2.65;;
44137;SDS011;29800;55.942;37.314;2022-12-18T14:48:41;6.22;;;3.17;;
44137;SDS011;29800;55.942;37.314;2022-12-18T14:53:45;6.43;;;3.45;;
44137;SDS011;29800;55.942;37.314;2022-12-18T14:58:56;6.78;;;3.35;;
44137;SDS011;29800;55.942;37.314;2022-12-18T15:04:01;5.18;;;3.03;;
44137;SDS011;29800;55.942;37.314;2022-12-18T15:06:30;5.72;;;3.58;;
44137;SDS011;29800;55.942;37.314;2022-12-18T15:08:57;5.57;;;3.67;;
44137;SDS011;29800;55.942;37.314;2022-12-18T15:13:51;6.28;;;3.63;;
44137;SDS011;29800;55.942;37.314;2022-12-18T15:16:17;8.38;;;4.28;;
44137;SDS011;29800;55.942;37.314;2022-12-18T15:18:43;7.38;;;3.92;;
44137;SDS011;29800;55.942;37.314;2022-12-18T15:21:11;6.95;;;3.80;;
44137;SDS011;29800;55.942;37.314;2022-12-18T15:23:48;8.23;;;4.53;;
44137;SDS011;29800;55.942;37.314;2022-12-18T15:26:17;7.93;;;4.03;;
44137;SDS011;29800;55.942;37.314;2022-12-18T15:28:46;6.72;;;3.67;;
44137;SDS011;29800;55.942;37.314;2022-12-18T15:33:40;7.75;;;4.05;;
44137;SDS011;29800;55.942;37.314;2022-12-18T15:36:18;5.78;;;3.58;;
44137;SDS011;29800;55.942;37.314;2022-12-18T15:38:48;6.78;;;3.53;;
44137;SDS011;29800;55.942;37.314;2022-12-18T15:41:16;6.95;;;3.90;;
44137;SDS011;29800;55.942;37.314;2022-12-18T15:43:44;8.63;;;3.92;;
44137;SDS011;29800;55.942;37.314;2022-12-18T15:46:12;6.95;;;3.92;;
44137;SDS011;29800;55.942;37.314;2022-12-18T15:48:40;7.85;;;3.65;;
44137;SDS011;29800;55.942;37.314;2022-12-18T15:51:15;5.15;;;3.17;;
44137;SDS011;29800;55.942;37.314;2022-12-18T15:53:44;6.63;;;3.42;;
44137;SDS011;29800;55.942;37.314;2022-12-18T15:56:11;6.32;;;3.63;;
44137;SDS011;29800;55.942;37.314;2022-12-18T16:01:24;5.95;;;3.38;;
44137;SDS011;29800;55.942;37.314;2022-12-18T16:03:52;7.75;;;4.25;;
44137;SDS011;29800;55.942;37.314;2022-12-18T16:06:19;7.90;;;4.20;;
44137;SDS011;29800;55.942;37.314;2022-12-18T16:08:46;6.20;;;3.65;;
44137;SDS011;29800;55.942;37.314;2022-12-18T16:11:23;9.18;;;3.88;;
44137;SDS011;29800;55.942;37.314;2022-12-18T16:14:04;8.07;;;3.55;;
44137;SDS011;29800;55.942;37.314;2022-12-18T16:16:40;7.82;;;3.70;;
44137;SDS011;29800;55.942;37.314;2022-12-18T16:19:07;6.68;;;3.65;;
44137;SDS011;29800;55.942;37.314;2022-12-18T16:21:33;5.63;;;3.25;;
44137;SDS011;29800;55.942;37.314;2022-12-18T16:23:59;6.88;;;4.15;;
44137;SDS011;29800;55.942;37.314;2022-12-18T16:26:26;6.40;;;3.90;;
44137;SDS011;29800;55.942;37.314;2022-12-18T16:28:52;7.78;;;3.83;;
44137;SDS011;29800;55.942;37.314;2022-12-18T16:31:19;7.20;;;3.97;;
44137;SDS011;29800;55.942;37.314;2022-12-18T16:33:46;6.90;;;3.83;;
44137;SDS011;29800;55.942;37.314;2022-12-18T16:36:12;8.23;;;3.72;;
44137;SDS011;29800;55.942;37.314;2022-12-18T16:38:38;8.10;;;3.65;;
44137;SDS011;29800;55.942;37.314;2022-12-18T16:41:14;6.82;;;3.70;;
44137;SDS011;29800;55.942;37.314;2022-12-18T16:43:56;6.22;;;3.38;;
44137;SDS011;29800;55.942;37.314;2022-12-18T16:46:23;7.03;;;3.55;;
44137;SDS011;29800;55.942;37.314;2022-12-18T16:48:49;5.03;;;2.72;;
44137;SDS011;29800;55.942;37.314;2022-12-18T16:51:15;7.93;;;3.58;;
44137;SDS011;29800;55.942;37.314;2022-12-18T16:53:42;7.13;;;3.47;;
44137;SDS011;29800;55.942;37.314;2022-12-18T16:56:08;8.75;;;4.30;;
44137;SDS011;29800;55.942;37.314;2022-12-18T16:58:34;8.15;;;3.85;;
44137;SDS011;29800;55.942;37.314;2022-12-18T17:01:01;7.82;;;3.47;;
44137;SDS011;29800;55.942;37.314;2022-12-18T17:03:33;7.13;;;3.28;;
44137;SDS011;29800;55.942;37.314;2022-12-18T17:06:03;7.90;;;4.18;;
44137;SDS011;29800;55.942;37.314;2022-12-18T17:08:29;8.93;;;3.83;;
44137;SDS011;29800;55.942;37.314;2022-12-18T17:10:56;10.85;;;4.60;;